createdAt,value
2023-03-02T00:00:31.368Z,0.00
2023-03-02T00:01:31.354Z,0.00
2023-03-02T00:02:31.723Z,0.00
2023-03-02T00:03:31.423Z,0.00
2023-03-02T00:04:31.336Z,0.00
2023-03-02T00:05:31.308Z,0.00
2023-03-02T00:06:31.706Z,0.00
2023-03-02T00:07:31.314Z,0.00
2023-03-02T00:08:31.301Z,0.00
2023-03-02T00:09:31.268Z,0.00
2023-03-02T00:10:31.317Z,0.00
2023-03-02T00:11:31.245Z,0.00
2023-03-02T00:12:31.296Z,0.00
2023-03-02T00:13:31.204Z,0.00
2023-03-02T00:14:31.246Z,0.00
2023-03-02T00:15:31.219Z,0.00
2023-03-02T00:16:31.488Z,0.00
2023-03-02T00:17:32.148Z,0.00
2023-03-02T00:18:31.206Z,0.00
2023-03-02T00:19:31.151Z,0.00
2023-03-02T00:20:31.160Z,0.00
2023-03-02T00:21:31.144Z,0.00
2023-03-02T00:22:31.133Z,0.00
2023-03-02T00:23:31.119Z,0.00
2023-03-02T00:24:31.134Z,0.00
2023-03-02T00:25:31.100Z,0.00
2023-03-02T00:26:31.328Z,0.00
2023-03-02T00:27:31.062Z,0.00
2023-03-02T00:28:31.017Z,0.00
2023-03-02T00:29:31.108Z,0.00
2023-03-02T00:30:30.999Z,0.00
2023-03-02T00:31:31.089Z,0.00
2023-03-02T00:32:31.086Z,0.00
2023-03-02T00:33:31.022Z,0.00
2023-03-02T00:34:31.018Z,0.00
2023-03-02T00:35:31.022Z,0.00
2023-03-02T00:36:30.955Z,0.00
2023-03-02T00:37:30.970Z,0.00
2023-03-02T00:38:30.926Z,0.00
2023-03-02T00:39:30.967Z,0.00
2023-03-02T00:40:30.938Z,0.00
2023-03-02T00:41:30.922Z,0.00
2023-03-02T00:42:30.913Z,0.00
2023-03-02T00:43:30.857Z,0.00
2023-03-02T00:44:30.893Z,0.00
2023-03-02T00:45:30.861Z,0.00
2023-03-02T00:46:31.415Z,0.00
2023-03-02T00:47:30.831Z,0.00
2023-03-02T00:48:30.818Z,0.00
2023-03-02T00:49:30.839Z,0.00
2023-03-02T00:50:30.807Z,0.00
2023-03-02T00:51:30.793Z,0.00
2023-03-02T00:52:30.777Z,0.00
2023-03-02T00:53:30.772Z,0.00
2023-03-02T00:54:30.799Z,0.00
2023-03-02T00:55:30.758Z,0.00
2023-03-02T00:56:31.052Z,0.00
2023-03-02T00:57:30.730Z,0.00
2023-03-02T00:58:30.731Z,0.00
2023-03-02T00:59:30.690Z,0.00
2023-03-02T01:00:30.710Z,0.00
2023-03-02T01:01:30.679Z,0.00
2023-03-02T01:02:30.760Z,0.00
2023-03-02T01:03:30.722Z,0.00
2023-03-02T01:04:30.622Z,0.00
2023-03-02T01:05:30.679Z,0.00
2023-03-02T01:06:30.958Z,0.00
2023-03-02T01:07:30.623Z,0.00
2023-03-02T01:08:30.589Z,0.00
2023-03-02T01:09:30.567Z,0.00
2023-03-02T01:10:30.588Z,0.00
2023-03-02T01:11:30.558Z,0.00
2023-03-02T01:12:30.532Z,0.00
2023-03-02T01:13:30.552Z,0.00
2023-03-02T01:14:31.477Z,0.00
2023-03-02T01:15:30.538Z,0.00
2023-03-02T01:16:30.991Z,0.00
2023-03-02T01:17:30.476Z,0.00
2023-03-02T01:18:30.493Z,0.00
2023-03-02T01:19:31.111Z,0.00
2023-03-02T01:20:30.530Z,0.00
2023-03-02T01:21:30.451Z,0.00
2023-03-02T01:22:30.452Z,0.00
2023-03-02T01:23:30.416Z,0.00
2023-03-02T01:24:30.397Z,0.00
2023-03-02T01:25:30.488Z,0.00
2023-03-02T01:26:30.928Z,0.00
2023-03-02T01:27:30.402Z,0.00
2023-03-02T01:28:30.395Z,0.00
2023-03-02T01:29:30.341Z,0.00
2023-03-02T01:30:30.366Z,0.00
2023-03-02T01:31:30.397Z,0.00
2023-03-02T01:32:30.374Z,0.00
2023-03-02T01:33:30.324Z,0.00
2023-03-02T01:34:30.333Z,0.00
2023-03-02T01:35:30.374Z,0.00
2023-03-02T01:36:30.967Z,0.00
2023-03-02T01:37:30.273Z,0.00
2023-03-02T01:38:30.314Z,0.00
2023-03-02T01:39:30.269Z,0.00
2023-03-02T01:40:30.290Z,0.00
2023-03-02T01:41:30.204Z,0.00
2023-03-02T01:42:30.192Z,0.00
2023-03-02T01:43:30.242Z,0.00
2023-03-02T01:44:30.201Z,0.00
2023-03-02T01:45:30.650Z,0.00
2023-03-02T01:46:30.707Z,0.00
2023-03-02T01:47:30.152Z,0.00
2023-03-02T01:48:30.223Z,0.00
2023-03-02T01:49:30.148Z,0.00
2023-03-02T01:50:30.241Z,0.00
2023-03-02T01:51:30.117Z,0.00
2023-03-02T01:52:30.091Z,0.00
2023-03-02T01:53:30.133Z,0.00
2023-03-02T01:54:30.108Z,0.00
2023-03-02T01:55:30.154Z,0.00
2023-03-02T01:56:30.384Z,0.00
2023-03-02T01:57:30.062Z,0.00
2023-03-02T01:58:30.051Z,0.00
2023-03-02T01:59:30.026Z,0.00
2023-03-02T02:00:30.043Z,0.00
2023-03-02T02:01:30.085Z,0.00
2023-03-02T02:02:29.997Z,0.00
2023-03-02T02:03:29.980Z,0.00
2023-03-02T02:04:29.994Z,0.00
2023-03-02T02:05:29.963Z,0.00
2023-03-02T02:06:30.464Z,0.00
2023-03-02T02:07:29.935Z,0.00
2023-03-02T02:08:29.983Z,0.00
2023-03-02T02:09:29.895Z,0.00
2023-03-02T02:10:29.928Z,0.00
2023-03-02T02:11:29.892Z,0.00
2023-03-02T02:12:29.894Z,0.00
2023-03-02T02:13:29.884Z,0.00
2023-03-02T02:14:29.869Z,0.00
2023-03-02T02:15:29.883Z,0.00
2023-03-02T02:16:29.905Z,0.00
2023-03-02T02:17:29.860Z,0.00
2023-03-02T02:18:29.821Z,0.00
2023-03-02T02:19:29.813Z,0.00
2023-03-02T02:20:29.814Z,0.00
2023-03-02T02:21:29.782Z,0.00
2023-03-02T02:22:29.799Z,0.00
2023-03-02T02:23:29.773Z,0.00
2023-03-02T02:24:29.747Z,0.00
2023-03-02T02:25:29.789Z,0.00
2023-03-02T02:26:31.162Z,0.00
2023-03-02T02:27:29.687Z,0.00
2023-03-02T02:28:29.720Z,0.00
2023-03-02T02:29:29.673Z,0.00
2023-03-02T02:30:29.805Z,0.00
2023-03-02T02:31:29.719Z,0.00
2023-03-02T02:32:29.778Z,0.00
2023-03-02T02:33:29.679Z,0.00
2023-03-02T02:34:29.600Z,0.00
2023-03-02T02:35:29.721Z,0.00
2023-03-02T02:36:29.893Z,0.00
2023-03-02T02:37:29.558Z,0.00
2023-03-02T02:38:29.600Z,0.00
2023-03-02T02:39:29.572Z,0.00
2023-03-02T02:40:29.563Z,0.00
2023-03-02T02:41:29.544Z,0.00
2023-03-02T02:42:29.528Z,0.00
2023-03-02T02:43:29.490Z,0.00
2023-03-02T02:44:29.542Z,0.00
2023-03-02T02:45:29.566Z,0.00
2023-03-02T02:46:29.496Z,0.00
2023-03-02T02:47:29.453Z,0.00
2023-03-02T02:48:29.437Z,0.00
2023-03-02T02:49:29.461Z,0.00
2023-03-02T02:50:29.445Z,0.00
2023-03-02T02:51:29.445Z,0.00
2023-03-02T02:52:29.403Z,0.00
2023-03-02T02:53:29.380Z,0.00
2023-03-02T02:54:29.382Z,0.00
2023-03-02T02:55:29.415Z,0.00
2023-03-02T02:56:29.370Z,0.00
2023-03-02T02:57:29.350Z,0.00
2023-03-02T02:58:29.363Z,0.00
2023-03-02T02:59:29.374Z,0.00
2023-03-02T03:00:29.360Z,0.00
2023-03-02T03:01:29.337Z,0.00
2023-03-02T03:02:29.309Z,0.00
2023-03-02T03:03:29.401Z,0.00
2023-03-02T03:04:29.380Z,0.00
2023-03-02T03:05:29.323Z,0.00
2023-03-02T03:06:29.274Z,0.00
2023-03-02T03:07:29.240Z,0.00
2023-03-02T03:08:29.241Z,0.00
2023-03-02T03:09:29.317Z,0.00
2023-03-02T03:10:29.233Z,0.00
2023-03-02T03:11:29.246Z,0.00
2023-03-02T03:12:29.199Z,0.00
2023-03-02T03:13:29.156Z,0.00
2023-03-02T03:14:29.202Z,0.00
2023-03-02T03:15:29.185Z,0.00
2023-03-02T03:16:29.214Z,0.00
2023-03-02T03:17:29.141Z,0.00
2023-03-02T03:18:29.094Z,0.00
2023-03-02T03:19:29.086Z,0.00
2023-03-02T03:20:29.107Z,0.00
2023-03-02T03:21:29.088Z,0.00
2023-03-02T03:22:29.054Z,0.00
2023-03-02T03:23:29.047Z,0.00
2023-03-02T03:24:29.029Z,0.00
2023-03-02T03:25:29.048Z,0.00
2023-03-02T03:26:29.003Z,0.00
2023-03-02T03:27:29.004Z,0.00
2023-03-02T03:28:28.989Z,0.00
2023-03-02T03:29:28.983Z,0.00
2023-03-02T03:30:28.979Z,0.00
2023-03-02T03:31:28.959Z,0.00
2023-03-02T03:32:29.032Z,0.00
2023-03-02T03:33:28.928Z,0.00
2023-03-02T03:34:28.914Z,0.00
2023-03-02T03:35:28.942Z,0.00
2023-03-02T03:36:28.891Z,0.00
2023-03-02T03:37:28.893Z,0.00
2023-03-02T03:38:28.879Z,0.00
2023-03-02T03:39:28.861Z,0.00
2023-03-02T03:40:28.865Z,0.00
2023-03-02T03:41:28.849Z,0.00
2023-03-02T03:42:28.834Z,0.00
2023-03-02T03:43:28.819Z,0.00
2023-03-02T03:44:28.801Z,0.00
2023-03-02T03:45:30.354Z,0.00
2023-03-02T03:46:28.833Z,0.00
2023-03-02T03:47:28.773Z,0.00
2023-03-02T03:48:28.770Z,0.00
2023-03-02T03:49:28.762Z,0.00
2023-03-02T03:50:28.771Z,0.00
2023-03-02T03:51:28.751Z,0.00
2023-03-02T03:52:28.736Z,0.00
2023-03-02T03:53:28.711Z,0.00
2023-03-02T03:54:28.712Z,0.00
2023-03-02T03:55:28.690Z,0.00
2023-03-02T03:56:28.707Z,0.00
2023-03-02T03:57:28.690Z,0.00
2023-03-02T03:58:28.705Z,0.00
2023-03-02T03:59:28.654Z,0.00
2023-03-02T04:00:28.669Z,0.00
2023-03-02T04:01:28.661Z,0.00
2023-03-02T04:02:28.663Z,0.00
2023-03-02T04:03:28.613Z,0.00
2023-03-02T04:04:28.595Z,0.00
2023-03-02T04:05:30.690Z,0.00
2023-03-02T04:06:28.569Z,0.00
2023-03-02T04:07:28.600Z,0.00
2023-03-02T04:08:28.553Z,0.00
2023-03-02T04:09:28.538Z,0.00
2023-03-02T04:10:28.542Z,0.00
2023-03-02T04:11:28.508Z,0.00
2023-03-02T04:12:28.503Z,0.00
2023-03-02T04:13:28.530Z,0.00
2023-03-02T04:14:28.488Z,0.00
2023-03-02T04:15:28.481Z,0.00
2023-03-02T04:16:28.478Z,0.00
2023-03-02T04:17:28.444Z,0.00
2023-03-02T04:18:28.438Z,0.00
2023-03-02T04:19:28.472Z,0.00
2023-03-02T04:20:28.430Z,0.00
2023-03-02T04:21:28.393Z,0.00
2023-03-02T04:22:28.403Z,0.00
2023-03-02T04:23:28.381Z,0.00
2023-03-02T04:24:28.376Z,0.00
2023-03-02T04:25:28.401Z,0.00
2023-03-02T04:26:28.348Z,0.00
2023-03-02T04:27:28.345Z,0.00
2023-03-02T04:28:28.358Z,0.00
2023-03-02T04:29:28.315Z,0.00
2023-03-02T04:30:28.313Z,0.00
2023-03-02T04:31:28.408Z,0.00
2023-03-02T04:32:28.329Z,0.00
2023-03-02T04:33:28.278Z,0.00
2023-03-02T04:34:28.297Z,0.00
2023-03-02T04:35:28.283Z,0.00
2023-03-02T04:36:28.263Z,0.00
2023-03-02T04:37:28.277Z,0.00
2023-03-02T04:38:28.230Z,0.00
2023-03-02T04:39:28.232Z,0.00
2023-03-02T04:40:28.217Z,0.00
2023-03-02T04:41:28.203Z,0.00
2023-03-02T04:42:28.188Z,0.00
2023-03-02T04:43:28.205Z,0.00
2023-03-02T04:44:28.168Z,0.00
2023-03-02T04:45:28.162Z,0.00
2023-03-02T04:46:28.272Z,0.00
2023-03-02T04:47:28.152Z,0.00
2023-03-02T04:48:28.129Z,0.00
2023-03-02T04:49:28.139Z,0.00
2023-03-02T04:50:28.162Z,0.00
2023-03-02T04:51:28.100Z,0.00
2023-03-02T04:52:28.088Z,0.00
2023-03-02T04:53:28.089Z,0.00
2023-03-02T04:54:28.066Z,0.00
2023-03-02T04:55:28.085Z,0.00
2023-03-02T04:56:28.051Z,0.00
2023-03-02T04:57:28.025Z,0.00
2023-03-02T04:58:28.021Z,0.00
2023-03-02T04:59:28.003Z,0.00
2023-03-02T05:00:28.009Z,0.00
2023-03-02T05:01:28.027Z,0.00
2023-03-02T05:02:28.019Z,0.00
2023-03-02T05:03:27.961Z,0.00
2023-03-02T05:04:28.029Z,0.00
2023-03-02T05:05:27.943Z,0.00
2023-03-02T05:06:27.949Z,0.00
2023-03-02T05:07:27.981Z,0.00
2023-03-02T05:08:27.908Z,0.00
2023-03-02T05:09:27.893Z,0.00
2023-03-02T05:10:28.010Z,0.00
2023-03-02T05:11:27.871Z,0.00
2023-03-02T05:12:27.864Z,0.00
2023-03-02T05:13:27.871Z,0.00
2023-03-02T05:14:27.866Z,0.00
2023-03-02T05:15:27.820Z,0.00
2023-03-02T05:16:27.849Z,0.00
2023-03-02T05:17:27.804Z,0.00
2023-03-02T05:18:27.823Z,0.00
2023-03-02T05:19:27.793Z,0.00
2023-03-02T05:20:27.800Z,0.00
2023-03-02T05:21:27.757Z,0.00
2023-03-02T05:22:27.750Z,0.00
2023-03-02T05:23:27.772Z,0.00
2023-03-02T05:24:27.768Z,0.00
2023-03-02T05:25:27.722Z,0.00
2023-03-02T05:26:27.721Z,0.00
2023-03-02T05:27:27.692Z,0.00
2023-03-02T05:28:27.688Z,0.00
2023-03-02T05:29:27.699Z,0.00
2023-03-02T05:30:27.687Z,0.00
2023-03-02T05:31:27.728Z,0.00
2023-03-02T05:32:27.687Z,0.00
2023-03-02T05:33:27.636Z,0.00
2023-03-02T05:34:27.626Z,0.00
2023-03-02T05:35:27.664Z,0.00
2023-03-02T05:36:27.629Z,0.00
2023-03-02T05:37:27.588Z,0.00
2023-03-02T05:38:27.597Z,0.00
2023-03-02T05:39:27.570Z,0.00
2023-03-02T05:40:27.554Z,0.00
2023-03-02T05:41:27.547Z,0.00
2023-03-02T05:42:27.564Z,0.00
2023-03-02T05:43:27.515Z,0.00
2023-03-02T05:44:27.510Z,4.00
2023-03-02T05:45:27.501Z,0.00
2023-03-02T05:46:27.529Z,0.00
2023-03-02T05:47:27.471Z,4.00
2023-03-02T05:48:27.504Z,4.00
2023-03-02T05:49:27.449Z,0.00
2023-03-02T05:50:27.446Z,4.00
2023-03-02T05:51:27.454Z,4.00
2023-03-02T05:52:27.425Z,4.00
2023-03-02T05:53:27.414Z,8.00
2023-03-02T05:54:27.445Z,8.00
2023-03-02T05:55:27.396Z,8.00
2023-03-02T05:56:27.377Z,8.00
2023-03-02T05:57:27.390Z,12.00
2023-03-02T05:58:27.356Z,16.00
2023-03-02T05:59:27.340Z,16.00
2023-03-02T06:00:27.374Z,20.00
2023-03-02T06:01:27.325Z,24.00
2023-03-02T06:02:27.388Z,28.00
2023-03-02T06:03:27.359Z,32.00
2023-03-02T06:04:27.287Z,36.00
2023-03-02T06:05:27.275Z,40.00
2023-03-02T06:06:27.299Z,48.00
2023-03-02T06:07:27.262Z,56.00
2023-03-02T06:08:27.242Z,64.00
2023-03-02T06:09:27.227Z,72.00
2023-03-02T06:10:27.225Z,80.00
2023-03-02T06:11:27.205Z,92.00
2023-03-02T06:12:27.241Z,104.00
2023-03-02T06:13:27.186Z,112.00
2023-03-02T06:14:27.175Z,124.00
2023-03-02T06:15:27.165Z,140.00
2023-03-02T06:16:27.256Z,152.00
2023-03-02T06:17:27.140Z,168.00
2023-03-02T06:18:27.176Z,184.00
2023-03-02T06:19:27.125Z,200.00
2023-03-02T06:20:27.105Z,216.00
2023-03-02T06:21:27.117Z,232.00
2023-03-02T06:22:27.097Z,252.00
2023-03-02T06:23:27.070Z,268.00
2023-03-02T06:24:27.102Z,288.00
2023-03-02T06:25:27.058Z,304.00
2023-03-02T06:26:27.058Z,328.00
2023-03-02T06:27:27.029Z,344.00
2023-03-02T06:28:27.030Z,368.00
2023-03-02T06:29:27.002Z,388.00
2023-03-02T06:30:27.039Z,408.00
2023-03-02T06:31:27.018Z,432.00
2023-03-02T06:32:27.038Z,452.00
2023-03-02T06:33:26.994Z,476.00
2023-03-02T06:34:26.963Z,500.00
2023-03-02T06:35:27.060Z,520.00
2023-03-02T06:36:27.061Z,544.00
2023-03-02T06:37:26.918Z,568.00
2023-03-02T06:38:26.924Z,588.00
2023-03-02T06:39:26.908Z,612.00
2023-03-02T06:40:26.896Z,636.00
2023-03-02T06:41:26.885Z,656.00
2023-03-02T06:42:26.908Z,680.00
2023-03-02T06:43:26.863Z,704.00
2023-03-02T06:44:26.850Z,732.00
2023-03-02T06:45:26.844Z,752.00
2023-03-02T06:46:26.835Z,776.00
2023-03-02T06:47:26.821Z,800.00
2023-03-02T06:48:26.835Z,828.00
2023-03-02T06:49:26.793Z,852.00
2023-03-02T06:50:26.802Z,872.00
2023-03-02T06:51:26.776Z,900.00
2023-03-02T06:52:26.762Z,920.00
2023-03-02T06:53:26.752Z,944.00
2023-03-02T06:54:26.775Z,968.00
2023-03-02T06:55:26.721Z,992.00
2023-03-02T06:56:26.713Z,1016.00
2023-03-02T06:57:26.725Z,1040.00
2023-03-02T06:58:26.692Z,1064.00
2023-03-02T06:59:26.687Z,1088.00
2023-03-02T07:00:27.157Z,1112.00
2023-03-02T07:01:26.696Z,1140.00
2023-03-02T07:02:26.646Z,1160.00
2023-03-02T07:03:26.675Z,1184.00
2023-03-02T07:04:26.638Z,1208.00
2023-03-02T07:05:26.636Z,1232.00
2023-03-02T07:06:26.641Z,1256.00
2023-03-02T07:07:26.604Z,1280.00
2023-03-02T07:08:26.595Z,1300.00
2023-03-02T07:09:26.569Z,1328.00
2023-03-02T07:10:26.560Z,1352.00
2023-03-02T07:11:26.567Z,1376.00
2023-03-02T07:12:26.566Z,1404.00
2023-03-02T07:13:26.540Z,1424.00
2023-03-02T07:14:26.509Z,1452.00
2023-03-02T07:15:26.505Z,1476.00
2023-03-02T07:16:26.542Z,1492.00
2023-03-02T07:17:26.499Z,1516.00
2023-03-02T07:18:26.488Z,1548.00
2023-03-02T07:19:26.465Z,1572.00
2023-03-02T07:20:26.445Z,1600.00
2023-03-02T07:21:26.449Z,1632.00
2023-03-02T07:22:26.423Z,1660.00
2023-03-02T07:23:26.462Z,1692.00
2023-03-02T07:24:26.432Z,1716.00
2023-03-02T07:25:26.395Z,1740.00
2023-03-02T07:26:26.382Z,1772.00
2023-03-02T07:27:26.414Z,1796.00
2023-03-02T07:28:26.374Z,1800.00
2023-03-02T07:29:26.349Z,1840.00
2023-03-02T07:30:26.395Z,1876.00
2023-03-02T07:31:26.323Z,1912.00
2023-03-02T07:32:26.545Z,1928.00
2023-03-02T07:33:26.324Z,1976.00
2023-03-02T07:34:26.314Z,1984.00
2023-03-02T07:35:26.305Z,1976.00
2023-03-02T07:36:26.279Z,1996.00
2023-03-02T07:37:26.279Z,2024.00
2023-03-02T07:38:26.278Z,2084.00
2023-03-02T07:39:26.246Z,2088.00
2023-03-02T07:40:26.273Z,2080.00
2023-03-02T07:41:26.236Z,2116.00
2023-03-02T07:42:26.212Z,2172.00
2023-03-02T07:43:26.423Z,2192.00
2023-03-02T07:44:26.196Z,2212.00
2023-03-02T07:45:26.188Z,2208.00
2023-03-02T07:46:26.256Z,2228.00
2023-03-02T07:47:26.196Z,2272.00
2023-03-02T07:48:26.154Z,2288.00
2023-03-02T07:49:26.194Z,2296.00
2023-03-02T07:50:26.120Z,2344.00
2023-03-02T07:51:26.146Z,2368.00
2023-03-02T07:52:26.123Z,2364.00
2023-03-02T07:53:26.100Z,2408.00
2023-03-02T07:54:26.084Z,2436.00
2023-03-02T07:55:26.090Z,2452.00
2023-03-02T07:56:26.051Z,2540.00
2023-03-02T07:57:26.068Z,2512.00
2023-03-02T07:58:26.032Z,2632.00
2023-03-02T07:59:26.085Z,2648.00
2023-03-02T08:00:26.047Z,2644.00
2023-03-02T08:01:26.042Z,2692.00
2023-03-02T08:02:26.064Z,2708.00
2023-03-02T08:03:25.979Z,2788.00
2023-03-02T08:04:25.992Z,2832.00
2023-03-02T08:05:25.961Z,2900.00
2023-03-02T08:06:26.259Z,2896.00
2023-03-02T08:07:25.946Z,2888.00
2023-03-02T08:08:25.922Z,3044.00
2023-03-02T08:09:25.924Z,3040.00
2023-03-02T08:10:25.899Z,3104.00
2023-03-02T08:11:25.912Z,3168.00
2023-03-02T08:12:25.918Z,3160.00
2023-03-02T08:13:25.870Z,3084.00
2023-03-02T08:14:25.855Z,3196.00
2023-03-02T08:15:25.848Z,3296.00
2023-03-02T08:16:25.923Z,3332.00
2023-03-02T08:17:25.842Z,3252.00
2023-03-02T08:18:25.840Z,3364.00
2023-03-02T08:19:25.824Z,3364.00
2023-03-02T08:20:25.799Z,3460.00
2023-03-02T08:21:25.780Z,3436.00
2023-03-02T08:22:25.768Z,3400.00
2023-03-02T08:23:25.868Z,3472.00
2023-03-02T08:24:25.751Z,3516.00
2023-03-02T08:25:25.733Z,3524.00
2023-03-02T08:26:25.738Z,3564.00
2023-03-02T08:27:25.710Z,3580.00
2023-03-02T08:28:25.704Z,3612.00
2023-03-02T08:29:25.720Z,3624.00
2023-03-02T08:30:25.692Z,3628.00
2023-03-02T08:31:25.735Z,3652.00
2023-03-02T08:32:25.793Z,3680.00
2023-03-02T08:33:25.648Z,3720.00
2023-03-02T08:34:25.641Z,3712.00
2023-03-02T08:35:25.687Z,3756.00
2023-03-02T08:36:25.629Z,3824.00
2023-03-02T08:37:25.603Z,3812.00
2023-03-02T08:38:25.588Z,3868.00
2023-03-02T08:39:25.780Z,3828.00
2023-03-02T08:40:25.589Z,3908.00
2023-03-02T08:41:25.566Z,3916.00
2023-03-02T08:42:25.552Z,3904.00
2023-03-02T08:43:25.548Z,3896.00
2023-03-02T08:44:25.525Z,3932.00
2023-03-02T08:45:25.577Z,3956.00
2023-03-02T08:46:25.525Z,3944.00
2023-03-02T08:47:25.488Z,3980.00
2023-03-02T08:48:25.485Z,4020.00
2023-03-02T08:49:25.483Z,4036.00
2023-03-02T08:50:25.484Z,4044.00
2023-03-02T08:51:25.464Z,4044.00
2023-03-02T08:52:25.480Z,4072.00
2023-03-02T08:53:25.420Z,4084.00
2023-03-02T08:54:25.405Z,4108.00
2023-03-02T08:55:25.517Z,4124.00
2023-03-02T08:56:25.418Z,4096.00
2023-03-02T08:57:25.396Z,4136.00
2023-03-02T08:58:25.361Z,4148.00
2023-03-02T08:59:25.365Z,4172.00
2023-03-02T09:00:25.357Z,4188.00
2023-03-02T09:01:25.405Z,4184.00
2023-03-02T09:02:25.318Z,4224.00
2023-03-02T09:03:25.312Z,4224.00
2023-03-02T09:04:25.409Z,4264.00
2023-03-02T09:05:25.319Z,4264.00
2023-03-02T09:06:25.271Z,4276.00
2023-03-02T09:07:25.269Z,4312.00
2023-03-02T09:08:25.247Z,4312.00
2023-03-02T09:09:25.236Z,4332.00
2023-03-02T09:10:25.254Z,4344.00
2023-03-02T09:11:25.221Z,4384.00
2023-03-02T09:12:25.207Z,4380.00
2023-03-02T09:13:25.219Z,4392.00
2023-03-02T09:14:25.198Z,4368.00
2023-03-02T09:15:25.195Z,4428.00
2023-03-02T09:16:25.191Z,4504.00
2023-03-02T09:17:25.148Z,4468.00
2023-03-02T09:18:25.159Z,4476.00
2023-03-02T09:19:25.125Z,4500.00
2023-03-02T09:20:25.143Z,4520.00
2023-03-02T09:21:25.134Z,4520.00
2023-03-02T09:22:25.086Z,4548.00
2023-03-02T09:23:25.083Z,4584.00
2023-03-02T09:24:25.081Z,4600.00
2023-03-02T09:25:25.092Z,4672.00
2023-03-02T09:26:25.042Z,4664.00
2023-03-02T09:27:25.085Z,4620.00
2023-03-02T09:28:25.036Z,4664.00
2023-03-02T09:29:25.056Z,4684.00
2023-03-02T09:30:25.045Z,4712.00
2023-03-02T09:31:25.182Z,4716.00
2023-03-02T09:32:25.171Z,4748.00
2023-03-02T09:33:25.001Z,4784.00
2023-03-02T09:34:24.953Z,4788.00
2023-03-02T09:35:24.976Z,4792.00
2023-03-02T09:36:24.934Z,4840.00
2023-03-02T09:37:24.938Z,4868.00
2023-03-02T09:38:24.930Z,4912.00
2023-03-02T09:39:24.905Z,4892.00
2023-03-02T09:40:24.909Z,4888.00
2023-03-02T09:41:24.885Z,4916.00
2023-03-02T09:42:32.159Z,4928.00
2023-03-02T09:43:24.874Z,4948.00
2023-03-02T09:44:24.844Z,4940.00
2023-03-02T09:45:24.899Z,4948.00
2023-03-02T09:46:24.857Z,4964.00
2023-03-02T09:47:35.133Z,4948.00
2023-03-02T09:48:24.805Z,4980.00
2023-03-02T09:49:24.792Z,4984.00
2023-03-02T09:50:24.805Z,4996.00
2023-03-02T09:51:24.781Z,5024.00
2023-03-02T09:52:24.755Z,5028.00
2023-03-02T09:53:24.750Z,5020.00
2023-03-02T09:54:24.771Z,5016.00
2023-03-02T09:55:24.749Z,5044.00
2023-03-02T09:56:24.716Z,5048.00
2023-03-02T09:57:24.699Z,5064.00
2023-03-02T09:58:24.689Z,5052.00
2023-03-02T09:59:24.691Z,5072.00
2023-03-02T10:00:24.717Z,5080.00
2023-03-02T10:01:24.680Z,5092.00
2023-03-02T10:02:24.644Z,5140.00
2023-03-02T10:03:24.672Z,5136.00
2023-03-02T10:04:24.758Z,5180.00
2023-03-02T10:05:24.631Z,5192.00
2023-03-02T10:06:24.621Z,5224.00
2023-03-02T10:07:24.612Z,5192.00
2023-03-02T10:08:24.570Z,5180.00
2023-03-02T10:09:24.579Z,5200.00
2023-03-02T10:10:24.589Z,5224.00
2023-03-02T10:11:24.543Z,5256.00
2023-03-02T10:12:24.589Z,5256.00
2023-03-02T10:13:24.557Z,5288.00
2023-03-02T10:14:24.508Z,5312.00
2023-03-02T10:15:24.518Z,5320.00
2023-03-02T10:16:24.501Z,5336.00
2023-03-02T10:17:24.490Z,5332.00
2023-03-02T10:18:24.530Z,5352.00
2023-03-02T10:19:24.457Z,5348.00
2023-03-02T10:20:24.508Z,5368.00
2023-03-02T10:21:24.451Z,5376.00
2023-03-02T10:22:24.411Z,5396.00
2023-03-02T10:23:24.427Z,5372.00
2023-03-02T10:24:24.425Z,5436.00
2023-03-02T10:25:24.435Z,5416.00
2023-03-02T10:26:24.388Z,5416.00
2023-03-02T10:27:24.390Z,5476.00
2023-03-02T10:28:24.346Z,5476.00
2023-03-02T10:29:24.344Z,5480.00
2023-03-02T10:30:24.406Z,5532.00
2023-03-02T10:31:24.397Z,5528.00
2023-03-02T10:32:24.437Z,5544.00
2023-03-02T10:33:24.299Z,5568.00
2023-03-02T10:34:24.274Z,5572.00
2023-03-02T10:35:24.378Z,5556.00
2023-03-02T10:36:24.256Z,5556.00
2023-03-02T10:37:24.309Z,5560.00
2023-03-02T10:38:24.234Z,5596.00
2023-03-02T10:39:24.236Z,5604.00
2023-03-02T10:40:24.345Z,5552.00
2023-03-02T10:41:24.213Z,5576.00
2023-03-02T10:42:24.236Z,5564.00
2023-03-02T10:43:24.180Z,5552.00
2023-03-02T10:44:24.161Z,5592.00
2023-03-02T10:45:24.181Z,5604.00
2023-03-02T10:46:24.277Z,5596.00
2023-03-02T10:47:24.137Z,5580.00
2023-03-02T10:48:24.127Z,5568.00
2023-03-02T10:49:24.141Z,5612.00
2023-03-02T10:50:24.241Z,5636.00
2023-03-02T10:51:24.093Z,5648.00
2023-03-02T10:52:24.128Z,5632.00
2023-03-02T10:53:24.067Z,5636.00
2023-03-02T10:54:24.078Z,5628.00
2023-03-02T10:55:24.073Z,5680.00
2023-03-02T10:56:24.038Z,5652.00
2023-03-02T10:57:24.033Z,5696.00
2023-03-02T10:58:24.006Z,5708.00
2023-03-02T10:59:24.014Z,5676.00
2023-03-02T11:00:24.048Z,5688.00
2023-03-02T11:01:23.983Z,5708.00
2023-03-02T11:02:24.011Z,5660.00
2023-03-02T11:03:23.969Z,5776.00
2023-03-02T11:04:24.004Z,5788.00
2023-03-02T11:05:23.968Z,5804.00
2023-03-02T11:06:23.924Z,5764.00
2023-03-02T11:07:23.907Z,5752.00
2023-03-02T11:08:23.888Z,5764.00
2023-03-02T11:09:23.914Z,5752.00
2023-03-02T11:10:23.891Z,5772.00
2023-03-02T11:11:23.887Z,5732.00
2023-03-02T11:12:23.863Z,5728.00
2023-03-02T11:13:23.857Z,5724.00
2023-03-02T11:14:23.829Z,5752.00
2023-03-02T11:15:23.834Z,5792.00
2023-03-02T11:16:23.921Z,5760.00
2023-03-02T11:17:23.808Z,5764.00
2023-03-02T11:18:23.783Z,5780.00
2023-03-02T11:19:23.764Z,5776.00
2023-03-02T11:20:23.785Z,5784.00
2023-03-02T11:21:23.744Z,5788.00
2023-03-02T11:22:23.734Z,5780.00
2023-03-02T11:23:23.733Z,5772.00
2023-03-02T11:24:23.716Z,5760.00
2023-03-02T11:25:23.716Z,5812.00
2023-03-02T11:26:23.696Z,5800.00
2023-03-02T11:27:23.673Z,5764.00
2023-03-02T11:28:23.668Z,5768.00
2023-03-02T11:29:23.657Z,5768.00
2023-03-02T11:30:23.700Z,5724.00
2023-03-02T11:31:23.720Z,5740.00
2023-03-02T11:32:23.702Z,5732.00
2023-03-02T11:33:23.626Z,5716.00
2023-03-02T11:34:23.728Z,5720.00
2023-03-02T11:35:23.618Z,5720.00
2023-03-02T11:36:23.616Z,5692.00
2023-03-02T11:37:23.602Z,5680.00
2023-03-02T11:38:23.601Z,5664.00
2023-03-02T11:39:23.549Z,5636.00
2023-03-02T11:40:23.532Z,5784.00
2023-03-02T11:41:23.605Z,5768.00
2023-03-02T11:42:23.603Z,5732.00
2023-03-02T11:43:23.511Z,5704.00
2023-03-02T11:44:23.520Z,5700.00
2023-03-02T11:45:23.473Z,5676.00
2023-03-02T11:46:26.118Z,5656.00
2023-03-02T11:47:23.597Z,5596.00
2023-03-02T11:48:23.440Z,5660.00
2023-03-02T11:49:23.435Z,5656.00
2023-03-02T11:50:23.421Z,5612.00
2023-03-02T11:51:23.540Z,5644.00
2023-03-02T11:52:23.414Z,5632.00
2023-03-02T11:53:23.432Z,5608.00
2023-03-02T11:54:23.383Z,5620.00
2023-03-02T11:55:23.379Z,5624.00
2023-03-02T11:56:23.385Z,5640.00
2023-03-02T11:57:23.359Z,5588.00
2023-03-02T11:58:23.352Z,5592.00
2023-03-02T11:59:23.645Z,5576.00
2023-03-02T12:00:23.334Z,5580.00
2023-03-02T12:01:23.314Z,5564.00
2023-03-02T12:02:23.344Z,5560.00
2023-03-02T12:03:23.273Z,5560.00
2023-03-02T12:04:23.259Z,5508.00
2023-03-02T12:05:23.414Z,5480.00
2023-03-02T12:06:23.269Z,5500.00
2023-03-02T12:07:23.263Z,5516.00
2023-03-02T12:08:23.218Z,5528.00
2023-03-02T12:09:23.308Z,5500.00
2023-03-02T12:10:23.193Z,5508.00
2023-03-02T12:11:23.212Z,5528.00
2023-03-02T12:12:23.172Z,5524.00
2023-03-02T12:13:23.154Z,5500.00
2023-03-02T12:14:23.143Z,5496.00
2023-03-02T12:15:23.145Z,5472.00
2023-03-02T12:16:23.222Z,5500.00
2023-03-02T12:17:23.107Z,5460.00
2023-03-02T12:18:23.112Z,5440.00
2023-03-02T12:19:23.091Z,5448.00
2023-03-02T12:20:23.122Z,5428.00
2023-03-02T12:21:23.092Z,5432.00
2023-03-02T12:22:23.116Z,5384.00
2023-03-02T12:23:23.047Z,5388.00
2023-03-02T12:24:23.037Z,5388.00
2023-03-02T12:25:23.027Z,5364.00
2023-03-02T12:26:23.058Z,5368.00
2023-03-02T12:27:23.115Z,5352.00
2023-03-02T12:28:23.054Z,5336.00
2023-03-02T12:29:23.027Z,5292.00
2023-03-02T12:30:23.018Z,5280.00
2023-03-02T12:31:23.002Z,5348.00
2023-03-02T12:32:23.045Z,5296.00
2023-03-02T12:33:22.933Z,5280.00
2023-03-02T12:34:23.014Z,5244.00
2023-03-02T12:35:22.982Z,5240.00
2023-03-02T12:36:22.938Z,5196.00
2023-03-02T12:37:22.886Z,5220.00
2023-03-02T12:38:22.951Z,5248.00
2023-03-02T12:39:22.869Z,5256.00
2023-03-02T12:40:22.898Z,5220.00